sensor_id;sensor_type;location;lat;lon;timestamp;P1;durP1;ratioP1;P2;durP2;ratioP2
55346;SDS011;41218;55.700;38.270;2023-06-04T00:02:58;6.85;;;3.72;;
55346;SDS011;41218;55.700;38.270;2023-06-04T00:07:58;5.40;;;3.60;;
55346;SDS011;41218;55.700;38.270;2023-06-04T00:12:59;7.93;;;3.63;;
55346;SDS011;41218;55.700;38.270;2023-06-04T00:23:01;8.47;;;3.87;;
55346;SDS011;41218;55.700;38.270;2023-06-04T00:28:01;5.83;;;3.60;;
55346;SDS011;41218;55.700;38.270;2023-06-04T00:33:02;7.03;;;3.97;;
55346;SDS011;41218;55.700;38.270;2023-06-04T00:38:03;7.47;;;3.87;;
55346;SDS011;41218;55.700;38.270;2023-06-04T00:43:03;5.73;;;3.07;;
55346;SDS011;41218;55.700;38.270;2023-06-04T00:48:06;6.70;;;3.67;;
55346;SDS011;41218;55.700;38.270;2023-06-04T00:53:06;7.35;;;3.70;;
55346;SDS011;41218;55.700;38.270;2023-06-04T00:58:08;5.63;;;3.50;;
55346;SDS011;41218;55.700;38.270;2023-06-04T01:03:18;9.02;;;3.85;;
55346;SDS011;41218;55.700;38.270;2023-06-04T01:08:23;6.20;;;3.53;;
55346;SDS011;41218;55.700;38.270;2023-06-04T01:18:26;5.73;;;3.33;;
55346;SDS011;41218;55.700;38.270;2023-06-04T01:34:01;7.85;;;3.40;;
55346;SDS011;41218;55.700;38.270;2023-06-04T01:39:02;5.90;;;3.47;;
55346;SDS011;41218;55.700;38.270;2023-06-04T01:44:03;5.57;;;3.47;;
55346;SDS011;41218;55.700;38.270;2023-06-04T01:49:03;7.23;;;3.47;;
55346;SDS011;41218;55.700;38.270;2023-06-04T01:54:06;6.05;;;3.35;;
55346;SDS011;41218;55.700;38.270;2023-06-04T01:59:06;6.30;;;3.60;;
55346;SDS011;41218;55.700;38.270;2023-06-04T02:04:07;7.57;;;3.70;;
55346;SDS011;41218;55.700;38.270;2023-06-04T02:09:08;6.93;;;3.60;;
55346;SDS011;41218;55.700;38.270;2023-06-04T02:14:08;9.03;;;3.70;;
55346;SDS011;41218;55.700;38.270;2023-06-04T02:19:09;6.13;;;3.30;;
55346;SDS011;41218;55.700;38.270;2023-06-04T02:24:13;6.55;;;3.75;;
55346;SDS011;41218;55.700;38.270;2023-06-04T02:29:14;7.45;;;3.60;;
55346;SDS011;41218;55.700;38.270;2023-06-04T02:34:14;5.63;;;3.70;;
55346;SDS011;41218;55.700;38.270;2023-06-04T02:39:15;5.20;;;3.35;;
55346;SDS011;41218;55.700;38.270;2023-06-04T02:44:16;6.00;;;3.08;;
55346;SDS011;41218;55.700;38.270;2023-06-04T02:49:17;7.87;;;3.27;;
55346;SDS011;41218;55.700;38.270;2023-06-04T02:54:18;9.27;;;3.55;;
55346;SDS011;41218;55.700;38.270;2023-06-04T02:59:18;6.20;;;2.77;;
55346;SDS011;41218;55.700;38.270;2023-06-04T03:04:19;6.37;;;3.20;;
55346;SDS011;41218;55.700;38.270;2023-06-04T03:09:20;4.82;;;2.75;;
55346;SDS011;41218;55.700;38.270;2023-06-04T03:14:21;4.90;;;2.93;;
55346;SDS011;41218;55.700;38.270;2023-06-04T03:19:23;4.15;;;2.83;;
55346;SDS011;41218;55.700;38.270;2023-06-04T03:24:24;4.57;;;2.13;;
55346;SDS011;41218;55.700;38.270;2023-06-04T03:29:25;4.57;;;2.35;;
55346;SDS011;41218;55.700;38.270;2023-06-04T03:34:26;5.07;;;2.57;;
55346;SDS011;41218;55.700;38.270;2023-06-04T03:44:27;4.57;;;2.43;;
55346;SDS011;41218;55.700;38.270;2023-06-04T03:49:28;4.27;;;1.90;;
55346;SDS011;41218;55.700;38.270;2023-06-04T03:54:28;2.60;;;1.77;;
55346;SDS011;41218;55.700;38.270;2023-06-04T03:59:29;3.07;;;1.90;;
55346;SDS011;41218;55.700;38.270;2023-06-04T04:04:30;3.58;;;1.80;;
55346;SDS011;41218;55.700;38.270;2023-06-04T04:09:33;2.85;;;1.80;;
55346;SDS011;41218;55.700;38.270;2023-06-04T04:14:34;2.50;;;1.67;;
55346;SDS011;41218;55.700;38.270;2023-06-04T04:19:35;2.50;;;1.43;;
55346;SDS011;41218;55.700;38.270;2023-06-04T04:24:36;2.22;;;1.40;;
55346;SDS011;41218;55.700;38.270;2023-06-04T04:29:38;4.78;;;1.50;;
55346;SDS011;41218;55.700;38.270;2023-06-04T04:39:51;2.50;;;1.60;;
55346;SDS011;41218;55.700;38.270;2023-06-04T04:44:52;3.47;;;1.70;;
55346;SDS011;41218;55.700;38.270;2023-06-04T04:49:53;2.37;;;1.67;;
55346;SDS011;41218;55.700;38.270;2023-06-04T04:54:53;4.57;;;1.53;;
55346;SDS011;41218;55.700;38.270;2023-06-04T04:59:56;2.55;;;1.50;;
55346;SDS011;41218;55.700;38.270;2023-06-04T05:04:56;1.77;;;1.20;;
55346;SDS011;41218;55.700;38.270;2023-06-04T05:09:57;2.80;;;1.33;;
55346;SDS011;41218;55.700;38.270;2023-06-04T05:14:59;2.40;;;1.60;;
55346;SDS011;41218;55.700;38.270;2023-06-04T05:19:59;2.17;;;1.67;;
55346;SDS011;41218;55.700;38.270;2023-06-04T05:25:11;3.00;;;1.40;;
55346;SDS011;41218;55.700;38.270;2023-06-04T05:30:12;2.72;;;1.90;;
55346;SDS011;41218;55.700;38.270;2023-06-04T05:35:14;3.08;;;2.03;;
55346;SDS011;41218;55.700;38.270;2023-06-04T05:45:16;2.50;;;1.67;;
55346;SDS011;41218;55.700;38.270;2023-06-04T05:50:16;1.60;;;1.20;;
55346;SDS011;41218;55.700;38.270;2023-06-04T05:55:17;2.20;;;1.50;;
55346;SDS011;41218;55.700;38.270;2023-06-04T06:00:18;3.37;;;1.70;;
55346;SDS011;41218;55.700;38.270;2023-06-04T06:05:19;2.22;;;1.50;;
55346;SDS011;41218;55.700;38.270;2023-06-04T06:10:19;2.60;;;1.75;;
55346;SDS011;41218;55.700;38.270;2023-06-04T06:15:21;3.28;;;1.92;;
55346;SDS011;41218;55.700;38.270;2023-06-04T06:20:22;2.40;;;1.80;;
55346;SDS011;41218;55.700;38.270;2023-06-04T06:25:23;3.88;;;1.60;;
55346;SDS011;41218;55.700;38.270;2023-06-04T06:30:24;2.63;;;1.77;;
55346;SDS011;41218;55.700;38.270;2023-06-04T06:35:25;2.47;;;1.80;;
55346;SDS011;41218;55.700;38.270;2023-06-04T06:40:25;5.50;;;2.10;;
55346;SDS011;41218;55.700;38.270;2023-06-04T06:45:26;3.37;;;1.80;;
55346;SDS011;41218;55.700;38.270;2023-06-04T06:50:26;3.83;;;2.07;;
55346;SDS011;41218;55.700;38.270;2023-06-04T06:55:27;2.60;;;1.83;;
55346;SDS011;41218;55.700;38.270;2023-06-04T07:00:28;2.40;;;1.80;;
55346;SDS011;41218;55.700;38.270;2023-06-04T07:05:28;1.87;;;1.50;;
55346;SDS011;41218;55.700;38.270;2023-06-04T07:10:29;2.00;;;1.47;;
55346;SDS011;41218;55.700;38.270;2023-06-04T07:15:34;2.05;;;1.40;;
55346;SDS011;41218;55.700;38.270;2023-06-04T07:20:36;2.13;;;1.50;;
55346;SDS011;41218;55.700;38.270;2023-06-04T07:25:36;2.73;;;1.70;;
55346;SDS011;41218;55.700;38.270;2023-06-04T07:30:37;1.47;;;1.23;;
55346;SDS011;41218;55.700;38.270;2023-06-04T07:35:38;2.25;;;1.40;;
55346;SDS011;41218;55.700;38.270;2023-06-04T07:40:39;3.30;;;1.30;;
55346;SDS011;41218;55.700;38.270;2023-06-04T07:45:42;2.22;;;1.40;;
55346;SDS011;41218;55.700;38.270;2023-06-04T07:50:42;1.33;;;1.20;;
55346;SDS011;41218;55.700;38.270;2023-06-04T07:55:43;3.30;;;1.27;;
55346;SDS011;41218;55.700;38.270;2023-06-04T08:00:43;4.37;;;1.50;;
55346;SDS011;41218;55.700;38.270;2023-06-04T08:05:44;2.10;;;1.37;;
55346;SDS011;41218;55.700;38.270;2023-06-04T08:10:45;2.77;;;1.27;;
55346;SDS011;41218;55.700;38.270;2023-06-04T08:15:48;3.03;;;1.40;;
55346;SDS011;41218;55.700;38.270;2023-06-04T08:20:49;2.10;;;1.48;;
55346;SDS011;41218;55.700;38.270;2023-06-04T08:25:49;3.60;;;1.33;;
55346;SDS011;41218;55.700;38.270;2023-06-04T08:30:50;1.40;;;1.20;;
55346;SDS011;41218;55.700;38.270;2023-06-04T08:35:52;1.30;;;1.13;;
55346;SDS011;41218;55.700;38.270;2023-06-04T08:40:53;2.60;;;1.10;;
55346;SDS011;41218;55.700;38.270;2023-06-04T08:46:03;1.45;;;1.10;;
55346;SDS011;41218;55.700;38.270;2023-06-04T08:51:08;2.08;;;1.15;;
55346;SDS011;41218;55.700;38.270;2023-06-04T08:56:11;1.30;;;1.10;;
55346;SDS011;41218;55.700;38.270;2023-06-04T09:01:12;1.98;;;1.23;;
55346;SDS011;41218;55.700;38.270;2023-06-04T09:06:14;1.60;;;1.15;;
55346;SDS011;41218;55.700;38.270;2023-06-04T09:11:16;1.48;;;1.23;;
55346;SDS011;41218;55.700;38.270;2023-06-04T09:16:19;2.13;;;1.52;;
55346;SDS011;41218;55.700;38.270;2023-06-04T09:21:20;2.53;;;1.23;;
55346;SDS011;41218;55.700;38.270;2023-06-04T09:26:21;2.22;;;1.30;;
55346;SDS011;41218;55.700;38.270;2023-06-04T09:31:22;7.37;;;1.23;;
55346;SDS011;41218;55.700;38.270;2023-06-04T09:36:29;1.65;;;1.20;;
55346;SDS011;41218;55.700;38.270;2023-06-04T09:41:31;2.17;;;1.30;;
55346;SDS011;41218;55.700;38.270;2023-06-04T09:46:31;1.88;;;1.30;;
55346;SDS011;41218;55.700;38.270;2023-06-04T09:51:32;1.90;;;1.50;;
55346;SDS011;41218;55.700;38.270;2023-06-04T09:56:39;2.60;;;1.50;;
55346;SDS011;41218;55.700;38.270;2023-06-04T10:01:40;1.75;;;1.25;;
55346;SDS011;41218;55.700;38.270;2023-06-04T10:06:41;4.07;;;1.25;;
55346;SDS011;41218;55.700;38.270;2023-06-04T10:11:44;5.00;;;1.40;;
55346;SDS011;41218;55.700;38.270;2023-06-04T10:16:51;2.90;;;1.20;;
55346;SDS011;41218;55.700;38.270;2023-06-04T10:21:52;2.45;;;1.20;;
55346;SDS011;41218;55.700;38.270;2023-06-04T10:26:54;5.30;;;1.52;;
55346;SDS011;41218;55.700;38.270;2023-06-04T10:31:57;3.55;;;1.90;;
55346;SDS011;41218;55.700;38.270;2023-06-04T10:47:00;1.45;;;1.10;;
55346;SDS011;41218;55.700;38.270;2023-06-04T10:52:09;1.77;;;1.30;;
55346;SDS011;41218;55.700;38.270;2023-06-04T10:57:13;2.45;;;1.70;;
55346;SDS011;41218;55.700;38.270;2023-06-04T11:02:15;5.03;;;2.10;;
55346;SDS011;41218;55.700;38.270;2023-06-04T11:07:16;1.90;;;1.58;;
55346;SDS011;41218;55.700;38.270;2023-06-04T11:12:18;2.13;;;1.30;;
55346;SDS011;41218;55.700;38.270;2023-06-04T11:17:18;1.40;;;1.30;;
55346;SDS011;41218;55.700;38.270;2023-06-04T11:22:19;1.65;;;1.33;;
55346;SDS011;41218;55.700;38.270;2023-06-04T11:27:20;1.52;;;1.35;;
55346;SDS011;41218;55.700;38.270;2023-06-04T11:32:25;2.00;;;1.48;;
55346;SDS011;41218;55.700;38.270;2023-06-04T11:37:25;3.63;;;1.48;;
55346;SDS011;41218;55.700;38.270;2023-06-04T11:42:30;2.22;;;1.40;;
55346;SDS011;41218;55.700;38.270;2023-06-04T11:47:31;3.00;;;1.50;;
55346;SDS011;41218;55.700;38.270;2023-06-04T11:52:32;2.22;;;1.50;;
55346;SDS011;41218;55.700;38.270;2023-06-04T11:57:33;2.83;;;1.58;;
55346;SDS011;41218;55.700;38.270;2023-06-04T12:02:35;3.20;;;1.48;;
55346;SDS011;41218;55.700;38.270;2023-06-04T12:07:36;1.95;;;1.52;;
55346;SDS011;41218;55.700;38.270;2023-06-04T12:12:37;2.38;;;1.73;;
55346;SDS011;41218;55.700;38.270;2023-06-04T12:17:48;2.65;;;1.60;;
55346;SDS011;41218;55.700;38.270;2023-06-04T12:22:50;2.40;;;1.60;;
55346;SDS011;41218;55.700;38.270;2023-06-04T12:27:52;1.65;;;1.25;;
55346;SDS011;41218;55.700;38.270;2023-06-04T12:32:53;1.85;;;1.33;;
55346;SDS011;41218;55.700;38.270;2023-06-04T12:37:53;2.00;;;1.60;;
55346;SDS011;41218;55.700;38.270;2023-06-04T12:42:54;1.75;;;1.30;;
55346;SDS011;41218;55.700;38.270;2023-06-04T12:47:55;2.30;;;1.48;;
55346;SDS011;41218;55.700;38.270;2023-06-04T12:52:55;2.70;;;1.63;;
55346;SDS011;41218;55.700;38.270;2023-06-04T12:57:56;3.42;;;1.90;;
55346;SDS011;41218;55.700;38.270;2023-06-04T13:02:56;2.00;;;1.80;;
55346;SDS011;41218;55.700;38.270;2023-06-04T13:07:57;2.50;;;1.70;;
55346;SDS011;41218;55.700;38.270;2023-06-04T13:12:59;2.15;;;1.60;;
55346;SDS011;41218;55.700;38.270;2023-06-04T13:17:59;3.97;;;1.88;;
55346;SDS011;41218;55.700;38.270;2023-06-04T13:23:00;2.50;;;1.87;;
55346;SDS011;41218;55.700;38.270;2023-06-04T13:28:01;2.88;;;1.70;;
55346;SDS011;41218;55.700;38.270;2023-06-04T13:33:04;2.15;;;1.60;;
55346;SDS011;41218;55.700;38.270;2023-06-04T13:38:05;3.00;;;1.40;;
55346;SDS011;41218;55.700;38.270;2023-06-04T13:43:06;3.88;;;1.60;;
55346;SDS011;41218;55.700;38.270;2023-06-04T13:48:08;2.60;;;1.55;;
55346;SDS011;41218;55.700;38.270;2023-06-04T13:53:09;2.78;;;1.73;;
55346;SDS011;41218;55.700;38.270;2023-06-04T13:58:10;2.85;;;1.50;;
55346;SDS011;41218;55.700;38.270;2023-06-04T14:03:11;3.17;;;1.58;;
55346;SDS011;41218;55.700;38.270;2023-06-04T14:08:12;2.35;;;1.95;;
55346;SDS011;41218;55.700;38.270;2023-06-04T14:13:13;3.88;;;1.65;;
55346;SDS011;41218;55.700;38.270;2023-06-04T14:18:17;5.70;;;1.50;;
55346;SDS011;41218;55.700;38.270;2023-06-04T14:23:17;2.00;;;1.50;;
55346;SDS011;41218;55.700;38.270;2023-06-04T14:28:18;3.33;;;1.88;;
55346;SDS011;41218;55.700;38.270;2023-06-04T14:33:21;7.85;;;3.47;;
55346;SDS011;41218;55.700;38.270;2023-06-04T14:38:22;7.75;;;3.90;;
55346;SDS011;41218;55.700;38.270;2023-06-04T14:43:23;3.95;;;2.85;;
55346;SDS011;41218;55.700;38.270;2023-06-04T14:48:23;4.25;;;3.03;;
55346;SDS011;41218;55.700;38.270;2023-06-04T14:53:24;3.45;;;1.63;;
55346;SDS011;41218;55.700;38.270;2023-06-04T14:58:25;2.83;;;1.60;;
55346;SDS011;41218;55.700;38.270;2023-06-04T15:03:26;2.28;;;1.75;;
55346;SDS011;41218;55.700;38.270;2023-06-04T15:08:26;2.60;;;1.90;;
55346;SDS011;41218;55.700;38.270;2023-06-04T15:13:27;8.20;;;4.23;;
55346;SDS011;41218;55.700;38.270;2023-06-04T15:18:28;2.33;;;1.90;;
55346;SDS011;41218;55.700;38.270;2023-06-04T15:23:28;2.70;;;1.97;;
55346;SDS011;41218;55.700;38.270;2023-06-04T15:28:29;3.58;;;1.80;;
55346;SDS011;41218;55.700;38.270;2023-06-04T15:33:29;2.23;;;1.80;;
55346;SDS011;41218;55.700;38.270;2023-06-04T15:38:30;2.13;;;1.83;;
55346;SDS011;41218;55.700;38.270;2023-06-04T15:43:30;4.35;;;1.90;;
55346;SDS011;41218;55.700;38.270;2023-06-04T15:48:31;3.47;;;1.83;;
55346;SDS011;41218;55.700;38.270;2023-06-04T15:53:31;2.63;;;1.80;;
55346;SDS011;41218;55.700;38.270;2023-06-04T15:58:33;4.00;;;1.80;;
55346;SDS011;41218;55.700;38.270;2023-06-04T16:03:34;2.70;;;1.80;;
55346;SDS011;41218;55.700;38.270;2023-06-04T16:08:34;3.05;;;1.80;;
55346;SDS011;41218;55.700;38.270;2023-06-04T16:13:35;2.40;;;1.53;;
55346;SDS011;41218;55.700;38.270;2023-06-04T16:18:40;2.25;;;1.50;;
55346;SDS011;41218;55.700;38.270;2023-06-04T16:23:41;3.33;;;1.53;;
55346;SDS011;41218;55.700;38.270;2023-06-04T16:28:42;2.67;;;1.92;;
55346;SDS011;41218;55.700;38.270;2023-06-04T16:33:44;6.10;;;1.80;;
55346;SDS011;41218;55.700;38.270;2023-06-04T16:38:45;2.00;;;1.70;;
55346;SDS011;41218;55.700;38.270;2023-06-04T16:43:46;3.78;;;2.00;;
55346;SDS011;41218;55.700;38.270;2023-06-04T16:48:47;2.55;;;1.67;;
55346;SDS011;41218;55.700;38.270;2023-06-04T16:53:48;2.83;;;1.92;;
55346;SDS011;41218;55.700;38.270;2023-06-04T16:58:48;7.83;;;1.90;;
55346;SDS011;41218;55.700;38.270;2023-06-04T17:03:50;3.33;;;1.90;;
55346;SDS011;41218;55.700;38.270;2023-06-04T17:08:51;2.23;;;1.63;;
55346;SDS011;41218;55.700;38.270;2023-06-04T17:13:51;4.47;;;2.00;;
55346;SDS011;41218;55.700;38.270;2023-06-04T17:18:52;2.50;;;1.87;;
55346;SDS011;41218;55.700;38.270;2023-06-04T17:23:52;3.83;;;2.07;;
55346;SDS011;41218;55.700;38.270;2023-06-04T17:28:53;4.90;;;2.38;;
55346;SDS011;41218;55.700;38.270;2023-06-04T17:33:53;5.35;;;2.00;;
55346;SDS011;41218;55.700;38.270;2023-06-04T17:38:54;3.03;;;2.10;;
55346;SDS011;41218;55.700;38.270;2023-06-04T17:43:58;4.18;;;2.47;;
55346;SDS011;41218;55.700;38.270;2023-06-04T17:49:00;4.13;;;2.38;;
55346;SDS011;41218;55.700;38.270;2023-06-04T17:54:03;5.28;;;2.70;;
55346;SDS011;41218;55.700;38.270;2023-06-04T17:59:07;4.43;;;2.30;;
55346;SDS011;41218;55.700;38.270;2023-06-04T18:04:08;3.05;;;2.03;;
55346;SDS011;41218;55.700;38.270;2023-06-04T18:09:09;6.47;;;2.95;;
55346;SDS011;41218;55.700;38.270;2023-06-04T18:14:10;6.67;;;2.50;;
55346;SDS011;41218;55.700;38.270;2023-06-04T18:19:12;3.95;;;2.50;;
55346;SDS011;41218;55.700;38.270;2023-06-04T18:24:15;4.80;;;2.58;;
55346;SDS011;41218;55.700;38.270;2023-06-04T18:29:16;6.95;;;2.95;;
55346;SDS011;41218;55.700;38.270;2023-06-04T18:34:16;5.23;;;2.57;;
55346;SDS011;41218;55.700;38.270;2023-06-04T18:39:20;5.00;;;2.50;;
55346;SDS011;41218;55.700;38.270;2023-06-04T18:44:26;4.18;;;2.70;;
55346;SDS011;41218;55.700;38.270;2023-06-04T18:55:31;4.25;;;2.53;;
55346;SDS011;41218;55.700;38.270;2023-06-04T19:00:37;4.38;;;2.75;;
55346;SDS011;41218;55.700;38.270;2023-06-04T19:05:38;5.82;;;2.63;;
55346;SDS011;41218;55.700;38.270;2023-06-04T19:10:39;6.07;;;3.00;;
55346;SDS011;41218;55.700;38.270;2023-06-04T19:15:39;5.70;;;3.00;;
55346;SDS011;41218;55.700;38.270;2023-06-04T19:20:40;6.87;;;2.83;;
55346;SDS011;41218;55.700;38.270;2023-06-04T19:25:47;5.20;;;2.90;;
55346;SDS011;41218;55.700;38.270;2023-06-04T19:30:49;5.38;;;3.03;;
55346;SDS011;41218;55.700;38.270;2023-06-04T19:35:52;3.85;;;2.70;;
55346;SDS011;41218;55.700;38.270;2023-06-04T19:40:53;5.15;;;2.97;;
55346;SDS011;41218;55.700;38.270;2023-06-04T19:45:54;6.15;;;2.75;;
55346;SDS011;41218;55.700;38.270;2023-06-04T19:50:56;4.90;;;3.10;;
55346;SDS011;41218;55.700;38.270;2023-06-04T19:56:00;6.13;;;3.30;;
55346;SDS011;41218;55.700;38.270;2023-06-04T20:01:01;5.82;;;3.38;;
55346;SDS011;41218;55.700;38.270;2023-06-04T20:06:01;6.80;;;3.30;;
55346;SDS011;41218;55.700;38.270;2023-06-04T20:11:02;7.32;;;3.30;;
55346;SDS011;41218;55.700;38.270;2023-06-04T20:16:03;5.72;;;3.10;;
55346;SDS011;41218;55.700;38.270;2023-06-04T20:21:04;7.00;;;3.10;;
55346;SDS011;41218;55.700;38.270;2023-06-04T20:26:09;6.78;;;3.75;;
55346;SDS011;41218;55.700;38.270;2023-06-04T20:31:10;6.40;;;3.87;;
55346;SDS011;41218;55.700;38.270;2023-06-04T20:36:10;7.43;;;3.73;;
55346;SDS011;41218;55.700;38.270;2023-06-04T20:41:11;7.07;;;3.90;;
55346;SDS011;41218;55.700;38.270;2023-06-04T20:46:12;7.90;;;4.03;;
55346;SDS011;41218;55.700;38.270;2023-06-04T20:51:13;7.45;;;4.18;;
55346;SDS011;41218;55.700;38.270;2023-06-04T20:56:14;9.38;;;3.92;;
55346;SDS011;41218;55.700;38.270;2023-06-04T21:01:14;6.05;;;3.83;;
55346;SDS011;41218;55.700;38.270;2023-06-04T21:06:15;7.77;;;4.33;;
55346;SDS011;41218;55.700;38.270;2023-06-04T21:11:15;9.50;;;4.77;;
55346;SDS011;41218;55.700;38.270;2023-06-04T21:16:16;9.97;;;4.40;;
55346;SDS011;41218;55.700;38.270;2023-06-04T21:21:16;8.13;;;4.43;;
55346;SDS011;41218;55.700;38.270;2023-06-04T21:26:17;7.23;;;4.10;;
55346;SDS011;41218;55.700;38.270;2023-06-04T21:31:18;7.75;;;4.90;;
55346;SDS011;41218;55.700;38.270;2023-06-04T21:36:19;7.73;;;4.20;;
55346;SDS011;41218;55.700;38.270;2023-06-04T21:41:20;8.10;;;4.60;;
55346;SDS011;41218;55.700;38.270;2023-06-04T21:46:21;7.30;;;4.10;;
55346;SDS011;41218;55.700;38.270;2023-06-04T21:51:22;9.18;;;4.40;;
55346;SDS011;41218;55.700;38.270;2023-06-04T21:56:23;8.07;;;4.43;;
55346;SDS011;41218;55.700;38.270;2023-06-04T22:01:23;9.27;;;4.00;;
55346;SDS011;41218;55.700;38.270;2023-06-04T22:06:24;7.50;;;4.17;;
55346;SDS011;41218;55.700;38.270;2023-06-04T22:11:24;8.60;;;4.43;;
55346;SDS011;41218;55.700;38.270;2023-06-04T22:16:25;6.77;;;4.20;;
55346;SDS011;41218;55.700;38.270;2023-06-04T22:21:25;8.03;;;4.47;;
55346;SDS011;41218;55.700;38.270;2023-06-04T22:26:26;7.77;;;4.07;;
55346;SDS011;41218;55.700;38.270;2023-06-04T22:31:27;6.53;;;4.10;;
55346;SDS011;41218;55.700;38.270;2023-06-04T22:36:27;9.00;;;4.00;;
55346;SDS011;41218;55.700;38.270;2023-06-04T22:41:28;6.60;;;3.90;;
55346;SDS011;41218;55.700;38.270;2023-06-04T22:46:28;5.20;;;3.57;;
55346;SDS011;41218;55.700;38.270;2023-06-04T22:51:29;6.13;;;3.53;;
55346;SDS011;41218;55.700;38.270;2023-06-04T22:56:30;6.67;;;3.70;;
55346;SDS011;41218;55.700;38.270;2023-06-04T23:01:30;12.20;;;4.03;;
55346;SDS011;41218;55.700;38.270;2023-06-04T23:06:30;5.97;;;3.47;;
55346;SDS011;41218;55.700;38.270;2023-06-04T23:11:31;6.77;;;3.33;;
55346;SDS011;41218;55.700;38.270;2023-06-04T23:16:32;5.43;;;3.30;;
55346;SDS011;41218;55.700;38.270;2023-06-04T23:21:33;7.03;;;4.13;;
55346;SDS011;41218;55.700;38.270;2023-06-04T23:26:34;7.07;;;3.80;;
55346;SDS011;41218;55.700;38.270;2023-06-04T23:31:34;7.90;;;3.90;;
55346;SDS011;41218;55.700;38.270;2023-06-04T23:36:35;7.40;;;3.60;;
55346;SDS011;41218;55.700;38.270;2023-06-04T23:41:36;5.75;;;3.15;;
55346;SDS011;41218;55.700;38.270;2023-06-04T23:46:37;7.85;;;3.05;;
55346;SDS011;41218;55.700;38.270;2023-06-04T23:51:39;6.32;;;3.63;;
55346;SDS011;41218;55.700;38.270;2023-06-04T23:56:40;5.28;;;3.22;;
